createdAt,value
2023-05-14T00:00:52.605Z,959.05
2023-05-14T00:01:52.598Z,959.05
2023-05-14T00:02:52.681Z,959.05
2023-05-14T00:03:52.769Z,959.10
2023-05-14T00:04:52.493Z,959.06
2023-05-14T00:05:52.477Z,959.07
2023-05-14T00:06:52.440Z,959.04
2023-05-14T00:07:52.419Z,959.06
2023-05-14T00:08:52.384Z,959.07
2023-05-14T00:09:52.368Z,959.09
2023-05-14T00:10:52.360Z,959.06
2023-05-14T00:11:52.308Z,959.09
2023-05-14T00:12:52.283Z,959.08
2023-05-14T00:13:52.256Z,959.10
2023-05-14T00:14:52.225Z,959.06
2023-05-14T00:15:52.235Z,959.08
2023-05-14T00:16:52.189Z,959.07
2023-05-14T00:17:52.215Z,959.05
2023-05-14T00:18:52.148Z,959.06
2023-05-14T00:19:52.114Z,959.05
2023-05-14T00:20:52.068Z,959.07
2023-05-14T00:21:52.032Z,959.05
2023-05-14T00:22:52.009Z,959.05
2023-05-14T00:23:51.983Z,959.06
2023-05-14T00:24:51.954Z,959.09
2023-05-14T00:25:51.927Z,959.06
2023-05-14T00:26:51.906Z,959.04
2023-05-14T00:27:51.874Z,959.04
2023-05-14T00:28:51.851Z,959.04
2023-05-14T00:29:51.819Z,959.01
2023-05-14T00:30:51.793Z,959.03
2023-05-14T00:31:51.787Z,959.00
2023-05-14T00:32:51.773Z,958.99
2023-05-14T00:33:51.723Z,959.00
2023-05-14T00:34:51.687Z,958.99
2023-05-14T00:35:51.683Z,959.01
2023-05-14T00:36:51.631Z,959.01
2023-05-14T00:37:51.612Z,958.98
2023-05-14T00:38:51.578Z,958.96
2023-05-14T00:39:51.547Z,958.96
2023-05-14T00:40:51.522Z,958.95
2023-05-14T00:41:51.502Z,958.96
2023-05-14T00:42:51.474Z,958.94
2023-05-14T00:43:51.449Z,958.91
2023-05-14T00:44:51.414Z,958.93
2023-05-14T00:45:51.388Z,958.97
2023-05-14T00:46:51.403Z,958.95
2023-05-14T00:47:51.367Z,958.96
2023-05-14T00:48:51.306Z,958.91
2023-05-14T00:49:51.287Z,958.91
2023-05-14T00:50:51.252Z,958.95
2023-05-14T00:51:51.245Z,958.93
2023-05-14T00:52:51.205Z,958.94
2023-05-14T00:53:51.170Z,958.95
2023-05-14T00:54:51.146Z,958.93
2023-05-14T00:55:51.112Z,958.92
2023-05-14T00:56:51.111Z,958.94
2023-05-14T00:57:51.075Z,958.94
2023-05-14T00:58:51.116Z,958.94
2023-05-14T00:59:51.054Z,958.92
2023-05-14T01:00:51.017Z,958.91
2023-05-14T01:01:50.954Z,958.93
2023-05-14T01:02:51.093Z,958.91
2023-05-14T01:03:51.021Z,958.95
2023-05-14T01:04:50.869Z,958.94
2023-05-14T01:05:50.839Z,958.94
2023-05-14T01:06:50.813Z,958.94
2023-05-14T01:07:50.813Z,958.96
2023-05-14T01:08:50.771Z,958.97
2023-05-14T01:09:50.756Z,959.01
2023-05-14T01:10:50.711Z,958.97
2023-05-14T01:11:50.680Z,958.99
2023-05-14T01:12:50.652Z,958.96
2023-05-14T01:13:50.626Z,958.90
2023-05-14T01:14:50.595Z,958.92
2023-05-14T01:15:50.582Z,958.94
2023-05-14T01:16:50.697Z,958.93
2023-05-14T01:17:50.549Z,958.94
2023-05-14T01:18:50.511Z,958.91
2023-05-14T01:19:50.466Z,958.93
2023-05-14T01:20:50.434Z,958.93
2023-05-14T01:21:50.435Z,958.95
2023-05-14T01:22:50.379Z,958.92
2023-05-14T01:23:50.382Z,958.87
2023-05-14T01:24:50.322Z,958.89
2023-05-14T01:25:50.296Z,958.88
2023-05-14T01:26:50.272Z,958.89
2023-05-14T01:27:50.244Z,958.85
2023-05-14T01:28:50.220Z,958.87
2023-05-14T01:29:50.187Z,958.83
2023-05-14T01:30:50.158Z,958.85
2023-05-14T01:31:50.170Z,958.86
2023-05-14T01:32:50.149Z,958.85
2023-05-14T01:33:50.081Z,958.84
2023-05-14T01:34:50.049Z,958.84
2023-05-14T01:35:50.032Z,958.83
2023-05-14T01:36:49.993Z,958.83
2023-05-14T01:37:49.974Z,958.82
2023-05-14T01:38:49.939Z,958.76
2023-05-14T01:39:49.931Z,958.72
2023-05-14T01:40:49.885Z,958.74
2023-05-14T01:41:49.863Z,958.75
2023-05-14T01:42:49.876Z,958.77
2023-05-14T01:43:49.802Z,958.74
2023-05-14T01:44:49.777Z,958.76
2023-05-14T01:45:49.795Z,958.72
2023-05-14T01:46:49.721Z,958.77
2023-05-14T01:47:49.757Z,958.74
2023-05-14T01:48:49.664Z,958.78
2023-05-14T01:49:49.638Z,958.74
2023-05-14T01:50:49.616Z,958.77
2023-05-14T01:51:49.583Z,958.77
2023-05-14T01:52:49.578Z,958.77
2023-05-14T01:53:49.529Z,958.76
2023-05-14T01:54:49.499Z,958.74
2023-05-14T01:55:49.498Z,958.75
2023-05-14T01:56:49.445Z,958.77
2023-05-14T01:57:49.418Z,958.76
2023-05-14T01:58:49.391Z,958.75
2023-05-14T01:59:49.361Z,958.74
2023-05-14T02:00:49.353Z,958.74
2023-05-14T02:01:49.348Z,958.72
2023-05-14T02:02:49.290Z,958.74
2023-05-14T02:03:49.271Z,958.73
2023-05-14T02:04:49.226Z,958.76
2023-05-14T02:05:49.200Z,958.72
2023-05-14T02:06:49.171Z,958.72
2023-05-14T02:07:49.155Z,958.72
2023-05-14T02:08:49.127Z,958.72
2023-05-14T02:09:49.091Z,958.70
2023-05-14T02:10:49.072Z,958.73
2023-05-14T02:11:49.056Z,958.76
2023-05-14T02:12:49.008Z,958.70
2023-05-14T02:13:48.984Z,958.74
2023-05-14T02:14:48.955Z,958.72
2023-05-14T02:15:48.962Z,958.71
2023-05-14T02:16:48.902Z,958.73
2023-05-14T02:17:48.938Z,958.69
2023-05-14T02:18:48.895Z,958.67
2023-05-14T02:19:48.824Z,958.68
2023-05-14T02:20:48.798Z,958.72
2023-05-14T02:21:48.771Z,958.68
2023-05-14T02:22:48.741Z,958.72
2023-05-14T02:23:48.713Z,958.70
2023-05-14T02:24:48.686Z,958.70
2023-05-14T02:25:48.658Z,958.70
2023-05-14T02:26:48.630Z,958.67
2023-05-14T02:27:48.645Z,958.71
2023-05-14T02:28:48.580Z,958.71
2023-05-14T02:29:48.554Z,958.67
2023-05-14T02:30:48.522Z,958.70
2023-05-14T02:31:48.583Z,958.67
2023-05-14T02:32:48.549Z,958.64
2023-05-14T02:33:48.446Z,958.65
2023-05-14T02:34:48.419Z,958.61
2023-05-14T02:35:48.388Z,958.59
2023-05-14T02:36:48.360Z,958.61
2023-05-14T02:37:48.337Z,958.59
2023-05-14T02:38:48.303Z,958.55
2023-05-14T02:39:48.279Z,958.56
2023-05-14T02:40:48.261Z,958.54
2023-05-14T02:41:48.230Z,958.53
2023-05-14T02:42:48.196Z,958.51
2023-05-14T02:43:48.194Z,958.54
2023-05-14T02:44:48.143Z,958.57
2023-05-14T02:45:48.119Z,958.57
2023-05-14T02:46:48.121Z,958.54
2023-05-14T02:47:48.140Z,958.52
2023-05-14T02:48:48.050Z,958.54
2023-05-14T02:49:48.010Z,958.56
2023-05-14T02:50:47.979Z,958.53
2023-05-14T02:51:47.962Z,958.47
2023-05-14T02:52:47.927Z,958.52
2023-05-14T02:53:47.900Z,958.55
2023-05-14T02:54:47.871Z,958.50
2023-05-14T02:55:47.857Z,958.51
2023-05-14T02:56:47.820Z,958.52
2023-05-14T02:57:47.792Z,958.48
2023-05-14T02:58:47.763Z,958.49
2023-05-14T02:59:47.758Z,958.50
2023-05-14T03:00:47.763Z,958.50
2023-05-14T03:01:47.707Z,958.50
2023-05-14T03:02:47.779Z,958.52
2023-05-14T03:03:47.633Z,958.51
2023-05-14T03:04:47.608Z,958.50
2023-05-14T03:05:47.573Z,958.51
2023-05-14T03:06:47.544Z,958.52
2023-05-14T03:07:47.518Z,958.48
2023-05-14T03:08:47.510Z,958.47
2023-05-14T03:09:47.467Z,958.47
2023-05-14T03:10:47.434Z,958.48
2023-05-14T03:11:47.407Z,958.46
2023-05-14T03:12:47.382Z,958.46
2023-05-14T03:13:47.396Z,958.43
2023-05-14T03:14:47.324Z,958.42
2023-05-14T03:15:47.338Z,958.42
2023-05-14T03:16:47.340Z,958.42
2023-05-14T03:17:47.282Z,958.37
2023-05-14T03:18:47.290Z,958.38
2023-05-14T03:19:47.201Z,958.42
2023-05-14T03:20:47.164Z,958.38
2023-05-14T03:21:47.154Z,958.39
2023-05-14T03:22:47.107Z,958.40
2023-05-14T03:23:47.081Z,958.37
2023-05-14T03:24:47.049Z,958.39
2023-05-14T03:25:47.025Z,958.40
2023-05-14T03:26:46.999Z,958.35
2023-05-14T03:27:46.973Z,958.40
2023-05-14T03:28:46.941Z,958.35
2023-05-14T03:29:46.915Z,958.39
2023-05-14T03:30:46.924Z,958.39
2023-05-14T03:31:46.879Z,958.37
2023-05-14T03:32:46.917Z,958.40
2023-05-14T03:33:46.869Z,958.36
2023-05-14T03:34:46.777Z,958.37
2023-05-14T03:35:46.749Z,958.34
2023-05-14T03:36:46.729Z,958.32
2023-05-14T03:37:46.694Z,958.34
2023-05-14T03:38:46.666Z,958.34
2023-05-14T03:39:46.644Z,958.34
2023-05-14T03:40:46.619Z,958.34
2023-05-14T03:41:46.586Z,958.30
2023-05-14T03:42:46.558Z,958.35
2023-05-14T03:43:46.531Z,958.35
2023-05-14T03:44:46.501Z,958.34
2023-05-14T03:45:46.476Z,958.36
2023-05-14T03:46:46.446Z,958.38
2023-05-14T03:47:46.477Z,958.38
2023-05-14T03:48:46.424Z,958.35
2023-05-14T03:49:46.365Z,958.39
2023-05-14T03:50:46.333Z,958.36
2023-05-14T03:51:46.315Z,958.34
2023-05-14T03:52:46.282Z,958.33
2023-05-14T03:53:46.266Z,958.34
2023-05-14T03:54:46.231Z,958.31
2023-05-14T03:55:46.199Z,958.34
2023-05-14T03:56:46.170Z,958.29
2023-05-14T03:57:46.160Z,958.34
2023-05-14T03:58:46.127Z,958.32
2023-05-14T03:59:46.098Z,958.35
2023-05-14T04:00:46.062Z,958.33
2023-05-14T04:01:46.038Z,958.35
2023-05-14T04:02:46.059Z,958.36
2023-05-14T04:03:46.377Z,958.38
2023-05-14T04:04:45.980Z,958.40
2023-05-14T04:05:45.936Z,958.39
2023-05-14T04:06:45.895Z,958.41
2023-05-14T04:07:45.901Z,958.38
2023-05-14T04:08:45.842Z,958.41
2023-05-14T04:09:45.825Z,958.41
2023-05-14T04:10:45.782Z,958.38
2023-05-14T04:11:45.760Z,958.38
2023-05-14T04:12:45.731Z,958.41
2023-05-14T04:13:45.707Z,958.40
2023-05-14T04:14:45.674Z,958.38
2023-05-14T04:15:45.650Z,958.39
2023-05-14T04:16:45.682Z,958.38
2023-05-14T04:17:45.615Z,958.39
2023-05-14T04:18:45.589Z,958.41
2023-05-14T04:19:45.564Z,958.39
2023-05-14T04:20:45.515Z,958.41
2023-05-14T04:21:45.485Z,958.40
2023-05-14T04:22:45.455Z,958.39
2023-05-14T04:23:45.430Z,958.37
2023-05-14T04:24:45.405Z,958.42
2023-05-14T04:25:45.386Z,958.39
2023-05-14T04:26:45.354Z,958.40
2023-05-14T04:27:45.329Z,958.38
2023-05-14T04:28:45.292Z,958.42
2023-05-14T04:29:45.261Z,958.42
2023-05-14T04:30:45.235Z,958.42
2023-05-14T04:31:45.264Z,958.43
2023-05-14T04:32:45.199Z,958.42
2023-05-14T04:33:45.154Z,958.43
2023-05-14T04:34:45.120Z,958.45
2023-05-14T04:35:45.125Z,958.42
2023-05-14T04:36:45.068Z,958.45
2023-05-14T04:37:45.044Z,958.46
2023-05-14T04:38:45.013Z,958.44
2023-05-14T04:39:44.999Z,958.45
2023-05-14T04:40:44.959Z,958.48
2023-05-14T04:41:44.931Z,958.48
2023-05-14T04:42:44.900Z,958.46
2023-05-14T04:43:44.884Z,958.47
2023-05-14T04:44:44.851Z,958.47
2023-05-14T04:45:44.860Z,958.48
2023-05-14T04:46:44.796Z,958.46
2023-05-14T04:47:44.786Z,958.41
2023-05-14T04:48:44.739Z,958.48
2023-05-14T04:49:44.711Z,958.45
2023-05-14T04:50:44.684Z,958.46
2023-05-14T04:51:44.678Z,958.46
2023-05-14T04:52:44.629Z,958.49
2023-05-14T04:53:44.612Z,958.49
2023-05-14T04:54:44.618Z,958.50
2023-05-14T04:55:44.544Z,958.52
2023-05-14T04:56:44.527Z,958.52
2023-05-14T04:57:44.492Z,958.54
2023-05-14T04:58:44.467Z,958.54
2023-05-14T04:59:44.449Z,958.53
2023-05-14T05:00:44.412Z,958.53
2023-05-14T05:01:44.505Z,958.54
2023-05-14T05:02:44.417Z,958.57
2023-05-14T05:03:44.341Z,958.57
2023-05-14T05:04:44.305Z,958.57
2023-05-14T05:05:44.276Z,958.57
2023-05-14T05:06:44.248Z,958.55
2023-05-14T05:07:44.250Z,958.52
2023-05-14T05:08:44.196Z,958.53
2023-05-14T05:09:44.175Z,958.53
2023-05-14T05:10:44.144Z,958.55
2023-05-14T05:11:44.128Z,958.54
2023-05-14T05:12:44.089Z,958.52
2023-05-14T05:13:44.069Z,958.51
2023-05-14T05:14:44.034Z,958.51
2023-05-14T05:15:44.020Z,958.56
2023-05-14T05:16:43.981Z,958.57
2023-05-14T05:17:44.012Z,958.54
2023-05-14T05:18:43.948Z,958.61
2023-05-14T05:19:44.626Z,958.58
2023-05-14T05:20:43.875Z,958.59
2023-05-14T05:21:43.874Z,958.56
2023-05-14T05:22:43.822Z,958.57
2023-05-14T05:23:43.813Z,958.59
2023-05-14T05:24:43.764Z,958.57
2023-05-14T05:25:43.741Z,958.57
2023-05-14T05:26:43.724Z,958.56
2023-05-14T05:27:43.684Z,958.58
2023-05-14T05:28:43.660Z,958.54
2023-05-14T05:29:43.628Z,958.55
2023-05-14T05:30:43.602Z,958.55
2023-05-14T05:31:43.611Z,958.57
2023-05-14T05:32:43.573Z,958.54
2023-05-14T05:33:43.524Z,958.59
2023-05-14T05:34:43.501Z,958.57
2023-05-14T05:35:43.469Z,958.54
2023-05-14T05:36:43.439Z,958.54
2023-05-14T05:37:43.419Z,958.52
2023-05-14T05:38:43.383Z,958.55
2023-05-14T05:39:43.374Z,958.51
2023-05-14T05:40:43.336Z,958.51
2023-05-14T05:41:43.303Z,958.53
2023-05-14T05:42:43.275Z,958.56
2023-05-14T05:43:43.246Z,958.56
2023-05-14T05:44:43.228Z,958.52
2023-05-14T05:45:43.200Z,958.56
2023-05-14T05:46:43.209Z,958.56
2023-05-14T05:47:43.169Z,958.52
2023-05-14T05:48:43.128Z,958.53
2023-05-14T05:49:43.084Z,958.51
2023-05-14T05:50:43.060Z,958.52
2023-05-14T05:51:43.029Z,958.50
2023-05-14T05:52:43.012Z,958.48
2023-05-14T05:53:42.976Z,958.48
2023-05-14T05:54:42.953Z,958.51
2023-05-14T05:55:42.948Z,958.53
2023-05-14T05:56:42.906Z,958.46
2023-05-14T05:57:42.873Z,958.48
2023-05-14T05:58:42.846Z,958.50
2023-05-14T05:59:42.814Z,958.52
2023-05-14T06:00:42.788Z,958.52
2023-05-14T06:01:42.795Z,958.52
2023-05-14T06:02:42.922Z,958.53
2023-05-14T06:03:42.712Z,958.51
2023-05-14T06:04:42.685Z,958.51
2023-05-14T06:05:42.799Z,958.49
2023-05-14T06:06:42.635Z,958.50
2023-05-14T06:07:42.612Z,958.48
2023-05-14T06:08:42.599Z,958.52
2023-05-14T06:09:42.567Z,958.50
2023-05-14T06:10:42.527Z,958.54
2023-05-14T06:11:42.529Z,958.51
2023-05-14T06:12:42.472Z,958.53
2023-05-14T06:13:42.441Z,958.52
2023-05-14T06:14:42.418Z,958.51
2023-05-14T06:15:42.394Z,958.54
2023-05-14T06:16:42.406Z,958.53
2023-05-14T06:17:42.387Z,958.51
2023-05-14T06:18:42.349Z,958.53
2023-05-14T06:19:42.288Z,958.52
2023-05-14T06:20:42.263Z,958.53
2023-05-14T06:21:42.242Z,958.54
2023-05-14T06:22:42.206Z,958.54
2023-05-14T06:23:42.177Z,958.56
2023-05-14T06:24:42.152Z,958.55
2023-05-14T06:25:42.128Z,958.59
2023-05-14T06:26:42.131Z,958.54
2023-05-14T06:27:42.103Z,958.56
2023-05-14T06:28:42.046Z,958.58
2023-05-14T06:29:42.019Z,958.56
2023-05-14T06:30:42.011Z,958.55
2023-05-14T06:31:42.022Z,958.54
2023-05-14T06:32:41.999Z,958.56
2023-05-14T06:33:41.913Z,958.57
2023-05-14T06:34:41.888Z,958.55
2023-05-14T06:35:41.863Z,958.58
2023-05-14T06:36:41.832Z,958.57
2023-05-14T06:37:41.815Z,958.55
2023-05-14T06:38:41.777Z,958.58
2023-05-14T06:39:41.749Z,958.58
2023-05-14T06:40:41.738Z,958.55
2023-05-14T06:41:41.701Z,958.53
2023-05-14T06:42:41.670Z,958.52
2023-05-14T06:43:41.668Z,958.55
2023-05-14T06:44:41.618Z,958.53
2023-05-14T06:45:41.642Z,958.53
2023-05-14T06:46:41.574Z,958.55
2023-05-14T06:47:41.602Z,958.57
2023-05-14T06:48:41.569Z,958.52
2023-05-14T06:49:41.487Z,958.57
2023-05-14T06:50:41.459Z,958.58
2023-05-14T06:51:41.433Z,958.57
2023-05-14T06:52:41.400Z,958.57
2023-05-14T06:53:41.376Z,958.58
2023-05-14T06:54:41.350Z,958.59
2023-05-14T06:55:41.322Z,958.62
2023-05-14T06:56:41.326Z,958.60
2023-05-14T06:57:41.269Z,958.57
2023-05-14T06:58:41.242Z,958.59
2023-05-14T06:59:41.253Z,958.63
2023-05-14T07:00:41.192Z,958.58
2023-05-14T07:01:41.229Z,958.59
2023-05-14T07:02:41.172Z,958.62
2023-05-14T07:03:41.155Z,958.60
2023-05-14T07:04:41.194Z,958.62
2023-05-14T07:05:41.062Z,958.62
2023-05-14T07:06:41.039Z,958.61
2023-05-14T07:07:41.005Z,958.62
2023-05-14T07:08:40.983Z,958.62
2023-05-14T07:09:40.959Z,958.62
2023-05-14T07:10:40.923Z,958.64
2023-05-14T07:11:40.904Z,958.64
2023-05-14T07:12:40.877Z,958.65
2023-05-14T07:13:40.855Z,958.64
2023-05-14T07:14:40.821Z,958.64
2023-05-14T07:15:40.814Z,958.62
2023-05-14T07:16:40.782Z,958.64
2023-05-14T07:17:40.768Z,958.59
2023-05-14T07:18:40.737Z,958.62
2023-05-14T07:19:40.690Z,958.57
2023-05-14T07:20:40.663Z,958.59
2023-05-14T07:21:40.635Z,958.59
2023-05-14T07:22:40.620Z,958.60
2023-05-14T07:23:40.580Z,958.56
2023-05-14T07:24:40.570Z,958.59
2023-05-14T07:25:40.538Z,958.57
2023-05-14T07:26:40.536Z,958.60
2023-05-14T07:27:40.485Z,958.57
2023-05-14T07:28:40.457Z,958.60
2023-05-14T07:29:40.426Z,958.61
2023-05-14T07:30:40.401Z,958.56
2023-05-14T07:31:40.502Z,958.57
2023-05-14T07:32:40.408Z,958.57
2023-05-14T07:33:40.324Z,958.63
2023-05-14T07:34:40.356Z,958.62
2023-05-14T07:35:40.268Z,958.65
2023-05-14T07:36:40.240Z,958.61
2023-05-14T07:37:40.220Z,958.57
2023-05-14T07:38:40.195Z,958.61
2023-05-14T07:39:40.165Z,958.59
2023-05-14T07:40:40.151Z,958.55
2023-05-14T07:41:40.110Z,958.53
2023-05-14T07:42:40.132Z,958.54
2023-05-14T07:43:40.059Z,958.53
2023-05-14T07:44:40.045Z,958.55
2023-05-14T07:45:40.024Z,958.56
2023-05-14T07:46:39.985Z,958.54
2023-05-14T07:47:40.110Z,958.58
2023-05-14T07:48:39.960Z,958.63
2023-05-14T07:49:39.903Z,958.61
2023-05-14T07:50:39.886Z,958.60
2023-05-14T07:51:39.876Z,958.58
2023-05-14T07:52:39.831Z,958.56
2023-05-14T07:53:39.810Z,958.54
2023-05-14T07:54:39.779Z,958.53
2023-05-14T07:55:39.753Z,958.56
2023-05-14T07:56:39.728Z,958.56
2023-05-14T07:57:39.702Z,958.60
2023-05-14T07:58:39.677Z,958.56
2023-05-14T07:59:39.650Z,958.54
2023-05-14T08:00:39.635Z,958.49
2023-05-14T08:01:39.698Z,958.54
2023-05-14T08:02:39.675Z,958.51
2023-05-14T08:03:39.668Z,958.52
2023-05-14T08:04:39.730Z,958.53
2023-05-14T08:05:39.503Z,958.55
2023-05-14T08:06:39.475Z,958.52
2023-05-14T08:07:39.450Z,958.47
2023-05-14T08:08:39.426Z,958.47
2023-05-14T08:09:39.404Z,958.47
2023-05-14T08:10:39.455Z,958.45
2023-05-14T08:11:39.356Z,958.44
2023-05-14T08:12:39.328Z,958.48
2023-05-14T08:13:39.303Z,958.45
2023-05-14T08:14:39.283Z,958.48
2023-05-14T08:15:39.253Z,958.47
2023-05-14T08:16:39.313Z,958.50
2023-05-14T08:17:39.288Z,958.51
2023-05-14T08:18:39.207Z,958.47
2023-05-14T08:19:39.176Z,958.46
2023-05-14T08:20:39.134Z,958.43
2023-05-14T08:21:39.107Z,958.50
2023-05-14T08:22:39.079Z,958.44
2023-05-14T08:23:39.064Z,958.47
2023-05-14T08:24:39.029Z,958.49
2023-05-14T08:25:39.011Z,958.47
2023-05-14T08:26:38.982Z,958.44
2023-05-14T08:27:38.957Z,958.50
2023-05-14T08:28:38.927Z,958.45
2023-05-14T08:29:38.908Z,958.39
2023-05-14T08:30:38.943Z,958.36
2023-05-14T08:31:38.854Z,958.36
2023-05-14T08:32:38.975Z,958.43
2023-05-14T08:33:38.806Z,958.34
2023-05-14T08:34:38.784Z,958.38
2023-05-14T08:35:38.796Z,958.40
2023-05-14T08:36:38.754Z,958.40
2023-05-14T08:37:38.711Z,958.43
2023-05-14T08:38:38.685Z,958.39
2023-05-14T08:39:38.661Z,958.45
2023-05-14T08:40:38.638Z,958.43
2023-05-14T08:41:38.604Z,958.43
2023-05-14T08:42:38.582Z,958.43
2023-05-14T08:43:38.560Z,958.50
2023-05-14T08:44:38.531Z,958.43
2023-05-14T08:45:38.506Z,958.46
2023-05-14T08:46:38.488Z,958.38
2023-05-14T08:47:38.506Z,958.43
2023-05-14T08:48:38.450Z,958.39
2023-05-14T08:49:38.409Z,958.39
2023-05-14T08:50:38.381Z,958.36
2023-05-14T08:51:38.376Z,958.41
2023-05-14T08:52:38.340Z,958.45
2023-05-14T08:53:38.306Z,958.35
2023-05-14T08:54:38.280Z,958.33
2023-05-14T08:55:38.258Z,958.35
2023-05-14T08:56:38.233Z,958.35
2023-05-14T08:57:38.213Z,958.32
2023-05-14T08:58:38.183Z,958.31
2023-05-14T08:59:38.174Z,958.35
2023-05-14T09:00:38.143Z,958.27
2023-05-14T09:01:38.204Z,958.28
2023-05-14T09:02:38.111Z,958.26
2023-05-14T09:03:38.098Z,958.18
2023-05-14T09:04:38.040Z,958.16
2023-05-14T09:05:38.017Z,958.22
2023-05-14T09:06:37.993Z,958.23
2023-05-14T09:07:37.987Z,958.26
2023-05-14T09:08:37.942Z,958.24
2023-05-14T09:09:37.916Z,958.17
2023-05-14T09:10:37.899Z,958.19
2023-05-14T09:11:37.868Z,958.13
2023-05-14T09:12:37.845Z,958.09
2023-05-14T09:13:37.825Z,958.07
2023-05-14T09:14:37.796Z,958.16
2023-05-14T09:15:37.776Z,958.12
2023-05-14T09:16:37.815Z,958.10
2023-05-14T09:17:37.754Z,958.14
2023-05-14T09:18:37.776Z,958.13
2023-05-14T09:19:37.678Z,958.15
2023-05-14T09:20:37.657Z,958.14
2023-05-14T09:21:37.635Z,958.16
2023-05-14T09:22:37.609Z,958.06
2023-05-14T09:23:37.612Z,958.15
2023-05-14T09:24:37.560Z,958.05
2023-05-14T09:25:37.534Z,958.02
2023-05-14T09:26:37.512Z,958.10
2023-05-14T09:27:37.486Z,958.10
2023-05-14T09:28:37.466Z,958.04
2023-05-14T09:29:37.446Z,958.06
2023-05-14T09:30:37.452Z,958.16
2023-05-14T09:31:37.440Z,958.16
2023-05-14T09:32:37.446Z,958.21
2023-05-14T09:33:37.346Z,958.14
2023-05-14T09:34:37.330Z,958.09
2023-05-14T09:35:37.301Z,958.09
2023-05-14T09:36:37.286Z,958.07
2023-05-14T09:37:37.256Z,958.08
2023-05-14T09:38:37.224Z,958.05
2023-05-14T09:39:37.250Z,958.04
2023-05-14T09:40:37.175Z,958.06
2023-05-14T09:41:37.153Z,958.06
2023-05-14T09:42:37.128Z,958.05
2023-05-14T09:43:37.109Z,958.08
2023-05-14T09:44:37.080Z,958.05
2023-05-14T09:45:37.058Z,958.03
2023-05-14T09:46:37.046Z,958.07
2023-05-14T09:47:37.139Z,958.06
2023-05-14T09:48:37.072Z,958.06
2023-05-14T09:49:36.986Z,958.04
2023-05-14T09:50:36.939Z,958.02
2023-05-14T09:51:36.915Z,958.10
2023-05-14T09:52:36.891Z,958.11
2023-05-14T09:53:36.865Z,958.06
2023-05-14T09:54:36.843Z,958.05
2023-05-14T09:55:36.850Z,958.07
2023-05-14T09:56:36.795Z,958.04
2023-05-14T09:57:36.825Z,958.01
2023-05-14T09:58:36.757Z,958.06
2023-05-14T09:59:36.726Z,958.04
2023-05-14T10:00:36.707Z,957.99
2023-05-14T10:01:36.750Z,957.95
2023-05-14T10:02:36.696Z,957.95
2023-05-14T10:03:36.631Z,957.88
2023-05-14T10:04:36.634Z,957.92
2023-05-14T10:05:36.587Z,957.93
2023-05-14T10:06:36.557Z,957.96
2023-05-14T10:07:36.539Z,957.93
2023-05-14T10:08:36.537Z,957.98
2023-05-14T10:09:36.490Z,957.98
2023-05-14T10:10:36.467Z,958.00
2023-05-14T10:11:36.469Z,957.98
2023-05-14T10:12:36.427Z,958.04
2023-05-14T10:13:36.396Z,957.99
2023-05-14T10:14:36.384Z,958.05
2023-05-14T10:15:36.365Z,957.98
2023-05-14T10:16:36.338Z,958.00
2023-05-14T10:17:36.324Z,958.02
2023-05-14T10:18:36.335Z,957.99
2023-05-14T10:19:36.249Z,957.94
2023-05-14T10:20:36.248Z,957.97
2023-05-14T10:21:36.206Z,957.95
2023-05-14T10:22:36.179Z,957.96
2023-05-14T10:23:36.157Z,957.96
2023-05-14T10:24:36.135Z,957.97
2023-05-14T10:25:36.114Z,957.96
2023-05-14T10:26:36.089Z,957.94
2023-05-14T10:27:36.081Z,957.91
2023-05-14T10:28:36.037Z,957.91
2023-05-14T10:29:36.018Z,957.91
2023-05-14T10:30:35.992Z,957.86
2023-05-14T10:31:35.987Z,957.88
2023-05-14T10:32:35.992Z,957.87
2023-05-14T10:33:35.919Z,957.87
2023-05-14T10:34:35.893Z,957.84
2023-05-14T10:35:35.872Z,957.83
2023-05-14T10:36:35.848Z,957.78
2023-05-14T10:37:35.831Z,957.81
2023-05-14T10:38:35.803Z,957.82
2023-05-14T10:39:35.777Z,957.83
2023-05-14T10:40:35.758Z,957.80
2023-05-14T10:41:35.728Z,957.78
2023-05-14T10:42:35.709Z,957.80
2023-05-14T10:43:35.705Z,957.82
2023-05-14T10:44:35.659Z,957.81
2023-05-14T10:45:35.631Z,957.79
2023-05-14T10:46:35.653Z,957.81
2023-05-14T10:47:35.614Z,957.83
2023-05-14T10:48:35.562Z,957.81
2023-05-14T10:49:43.023Z,957.83
2023-05-14T10:50:35.514Z,957.79
2023-05-14T10:51:35.535Z,957.76
2023-05-14T10:52:35.464Z,957.77
2023-05-14T10:53:35.444Z,957.82
2023-05-14T10:54:35.422Z,957.76
2023-05-14T10:55:35.400Z,957.74
2023-05-14T10:56:35.372Z,957.69
2023-05-14T10:57:35.350Z,957.71
2023-05-14T10:58:35.319Z,957.71
2023-05-14T10:59:35.325Z,957.67
2023-05-14T11:00:35.274Z,957.62
2023-05-14T11:01:35.286Z,957.67
2023-05-14T11:02:35.253Z,957.65
2023-05-14T11:03:35.238Z,957.65
2023-05-14T11:04:35.191Z,957.60
2023-05-14T11:05:35.163Z,957.60
2023-05-14T11:06:35.133Z,957.67
2023-05-14T11:07:35.117Z,957.64
2023-05-14T11:08:35.089Z,957.71
2023-05-14T11:09:35.066Z,957.72
2023-05-14T11:10:35.040Z,957.70
2023-05-14T11:11:35.018Z,957.67
2023-05-14T11:12:35.009Z,957.66
2023-05-14T11:13:34.976Z,957.65
2023-05-14T11:14:34.954Z,957.63
2023-05-14T11:15:34.941Z,957.58
2023-05-14T11:16:34.954Z,957.52
2023-05-14T11:17:34.910Z,957.48
2023-05-14T11:18:34.865Z,957.45
2023-05-14T11:19:34.833Z,957.41
2023-05-14T11:20:34.808Z,957.40
2023-05-14T11:21:34.885Z,957.36
2023-05-14T11:22:34.772Z,957.32
2023-05-14T11:23:34.754Z,957.34
2023-05-14T11:24:34.721Z,957.35
2023-05-14T11:25:34.696Z,957.29
2023-05-14T11:26:34.732Z,957.36
2023-05-14T11:27:34.652Z,957.36
2023-05-14T11:28:34.653Z,957.36
2023-05-14T11:29:34.624Z,957.41
2023-05-14T11:30:34.591Z,957.38
2023-05-14T11:31:34.588Z,957.40
2023-05-14T11:32:34.680Z,957.42
2023-05-14T11:33:34.512Z,957.38
2023-05-14T11:34:34.487Z,957.39
2023-05-14T11:35:34.462Z,957.38
2023-05-14T11:36:34.449Z,957.35
2023-05-14T11:37:34.421Z,957.36
2023-05-14T11:38:34.394Z,957.32
2023-05-14T11:39:34.370Z,957.32
2023-05-14T11:40:34.348Z,957.35
2023-05-14T11:41:34.323Z,957.33
2023-05-14T11:42:34.298Z,957.38
2023-05-14T11:43:34.276Z,957.38
2023-05-14T11:44:34.252Z,957.38
2023-05-14T11:45:34.240Z,957.36
2023-05-14T11:46:34.345Z,957.36
2023-05-14T11:47:34.223Z,957.36
2023-05-14T11:48:34.167Z,957.34
2023-05-14T11:49:34.136Z,957.33
2023-05-14T11:50:34.131Z,957.35
2023-05-14T11:51:34.115Z,957.36
2023-05-14T11:52:34.062Z,957.34
2023-05-14T11:53:34.041Z,957.35
2023-05-14T11:54:34.022Z,957.31
2023-05-14T11:55:34.005Z,957.26
2023-05-14T11:56:33.974Z,957.29
2023-05-14T11:57:33.947Z,957.28
2023-05-14T11:58:33.922Z,957.26
2023-05-14T11:59:33.899Z,957.22
2023-05-14T12:00:33.883Z,957.20
2023-05-14T12:01:33.849Z,957.24
2023-05-14T12:02:33.896Z,957.24
2023-05-14T12:03:34.038Z,957.20
2023-05-14T12:04:33.838Z,957.16
2023-05-14T12:05:33.761Z,957.18
2023-05-14T12:06:33.737Z,957.12
2023-05-14T12:07:33.710Z,957.13
2023-05-14T12:08:33.688Z,957.13
2023-05-14T12:09:33.666Z,957.13
2023-05-14T12:10:33.635Z,957.13
2023-05-14T12:11:33.613Z,957.24
2023-05-14T12:12:33.589Z,957.24
2023-05-14T12:13:33.569Z,957.18
2023-05-14T12:14:33.544Z,957.21
2023-05-14T12:15:33.523Z,957.21
2023-05-14T12:16:35.583Z,957.17
2023-05-14T12:17:33.541Z,957.20
2023-05-14T12:18:33.588Z,957.21
2023-05-14T12:19:33.449Z,957.14
2023-05-14T12:20:33.403Z,957.24
2023-05-14T12:21:33.379Z,957.14
2023-05-14T12:22:35.074Z,957.16
2023-05-14T12:23:33.327Z,957.24
2023-05-14T12:24:33.309Z,957.19
2023-05-14T12:25:33.285Z,957.22
2023-05-14T12:26:33.255Z,957.25
2023-05-14T12:27:33.231Z,957.19
2023-05-14T12:28:35.331Z,957.20